sensor_id;sensor_type;location;lat;lon;timestamp;P1;durP1;ratioP1;P2;durP2;ratioP2
20657;SDS011;10488;50.846;4.078;2022-11-20T00:00:13;96.53;;;39.70;;
20657;SDS011;10488;50.846;4.078;2022-11-20T00:02:41;90.83;;;39.07;;
20657;SDS011;10488;50.846;4.078;2022-11-20T00:05:07;98.43;;;41.57;;
20657;SDS011;10488;50.846;4.078;2022-11-20T00:07:33;100.53;;;41.20;;
20657;SDS011;10488;50.846;4.078;2022-11-20T00:09:58;106.13;;;39.88;;
20657;SDS011;10488;50.846;4.078;2022-11-20T00:12:25;99.23;;;41.70;;
20657;SDS011;10488;50.846;4.078;2022-11-20T00:14:50;101.37;;;43.03;;
20657;SDS011;10488;50.846;4.078;2022-11-20T00:17:17;102.63;;;39.73;;
20657;SDS011;10488;50.846;4.078;2022-11-20T00:19:43;104.03;;;40.17;;
20657;SDS011;10488;50.846;4.078;2022-11-20T00:22:09;101.93;;;40.20;;
20657;SDS011;10488;50.846;4.078;2022-11-20T00:24:35;104.00;;;41.57;;
20657;SDS011;10488;50.846;4.078;2022-11-20T00:27:00;99.93;;;39.73;;
20657;SDS011;10488;50.846;4.078;2022-11-20T00:29:26;93.97;;;38.33;;
20657;SDS011;10488;50.846;4.078;2022-11-20T00:31:52;96.50;;;39.70;;
20657;SDS011;10488;50.846;4.078;2022-11-20T00:34:19;98.23;;;39.00;;
20657;SDS011;10488;50.846;4.078;2022-11-20T00:36:44;85.73;;;37.43;;
20657;SDS011;10488;50.846;4.078;2022-11-20T00:39:10;87.70;;;38.53;;
20657;SDS011;10488;50.846;4.078;2022-11-20T00:41:37;91.40;;;39.23;;
20657;SDS011;10488;50.846;4.078;2022-11-20T00:44:03;97.30;;;39.03;;
20657;SDS011;10488;50.846;4.078;2022-11-20T00:46:29;97.97;;;39.17;;
20657;SDS011;10488;50.846;4.078;2022-11-20T00:48:56;92.50;;;39.03;;
20657;SDS011;10488;50.846;4.078;2022-11-20T00:51:24;95.57;;;40.03;;
20657;SDS011;10488;50.846;4.078;2022-11-20T00:53:51;90.83;;;37.67;;
20657;SDS011;10488;50.846;4.078;2022-11-20T00:56:17;80.00;;;36.63;;
20657;SDS011;10488;50.846;4.078;2022-11-20T00:58:45;81.40;;;36.97;;
20657;SDS011;10488;50.846;4.078;2022-11-20T01:01:15;76.83;;;35.77;;
20657;SDS011;10488;50.846;4.078;2022-11-20T01:03:45;72.73;;;35.97;;
20657;SDS011;10488;50.846;4.078;2022-11-20T01:06:14;86.07;;;35.10;;
20657;SDS011;10488;50.846;4.078;2022-11-20T01:08:48;78.27;;;34.40;;
20657;SDS011;10488;50.846;4.078;2022-11-20T01:11:17;75.57;;;32.97;;
20657;SDS011;10488;50.846;4.078;2022-11-20T01:13:45;73.07;;;34.80;;
20657;SDS011;10488;50.846;4.078;2022-11-20T01:16:12;76.90;;;33.33;;
20657;SDS011;10488;50.846;4.078;2022-11-20T01:18:44;82.97;;;35.60;;
20657;SDS011;10488;50.846;4.078;2022-11-20T01:21:13;70.37;;;33.93;;
20657;SDS011;10488;50.846;4.078;2022-11-20T01:23:43;76.20;;;33.93;;
20657;SDS011;10488;50.846;4.078;2022-11-20T01:26:10;72.47;;;32.87;;
20657;SDS011;10488;50.846;4.078;2022-11-20T01:28:38;72.20;;;34.30;;
20657;SDS011;10488;50.846;4.078;2022-11-20T01:33:51;90.00;;;34.43;;
20657;SDS011;10488;50.846;4.078;2022-11-20T01:36:20;80.37;;;34.23;;
20657;SDS011;10488;50.846;4.078;2022-11-20T01:38:50;82.13;;;36.20;;
20657;SDS011;10488;50.846;4.078;2022-11-20T01:41:17;79.20;;;33.38;;
20657;SDS011;10488;50.846;4.078;2022-11-20T01:44:03;72.43;;;34.90;;
20657;SDS011;10488;50.846;4.078;2022-11-20T01:46:32;71.30;;;33.03;;
20657;SDS011;10488;50.846;4.078;2022-11-20T01:51:42;75.90;;;33.70;;
20657;SDS011;10488;50.846;4.078;2022-11-20T01:54:15;73.83;;;32.43;;
20657;SDS011;10488;50.846;4.078;2022-11-20T01:56:44;73.07;;;34.53;;
20657;SDS011;10488;50.846;4.078;2022-11-20T01:59:15;73.93;;;33.87;;
20657;SDS011;10488;50.846;4.078;2022-11-20T02:01:43;80.70;;;34.53;;
20657;SDS011;10488;50.846;4.078;2022-11-20T02:04:09;77.13;;;34.87;;
20657;SDS011;10488;50.846;4.078;2022-11-20T02:06:46;88.67;;;34.40;;
20657;SDS011;10488;50.846;4.078;2022-11-20T02:09:15;75.60;;;33.37;;
20657;SDS011;10488;50.846;4.078;2022-11-20T02:11:41;81.07;;;36.03;;
20657;SDS011;10488;50.846;4.078;2022-11-20T02:14:08;75.97;;;35.50;;
20657;SDS011;10488;50.846;4.078;2022-11-20T02:16:39;76.43;;;33.80;;
20657;SDS011;10488;50.846;4.078;2022-11-20T02:19:17;88.67;;;34.57;;
20657;SDS011;10488;50.846;4.078;2022-11-20T02:24:37;85.15;;;36.00;;
20657;SDS011;10488;50.846;4.078;2022-11-20T02:27:04;79.63;;;33.57;;
20657;SDS011;10488;50.846;4.078;2022-11-20T02:29:35;81.78;;;34.67;;
20657;SDS011;10488;50.846;4.078;2022-11-20T02:32:21;75.07;;;34.43;;
20657;SDS011;10488;50.846;4.078;2022-11-20T02:34:49;79.37;;;34.43;;
20657;SDS011;10488;50.846;4.078;2022-11-20T02:37:14;83.37;;;35.67;;
20657;SDS011;10488;50.846;4.078;2022-11-20T02:39:41;86.40;;;33.88;;
20657;SDS011;10488;50.846;4.078;2022-11-20T02:42:08;82.13;;;35.00;;
20657;SDS011;10488;50.846;4.078;2022-11-20T02:44:34;74.43;;;32.43;;
20657;SDS011;10488;50.846;4.078;2022-11-20T02:47:00;75.13;;;35.20;;
20657;SDS011;10488;50.846;4.078;2022-11-20T02:49:26;84.50;;;34.50;;
20657;SDS011;10488;50.846;4.078;2022-11-20T02:51:53;77.50;;;32.20;;
20657;SDS011;10488;50.846;4.078;2022-11-20T02:54:20;79.13;;;34.35;;
20657;SDS011;10488;50.846;4.078;2022-11-20T02:56:45;76.13;;;34.03;;
20657;SDS011;10488;50.846;4.078;2022-11-20T02:59:11;78.25;;;32.58;;
20657;SDS011;10488;50.846;4.078;2022-11-20T03:01:37;77.03;;;34.55;;
20657;SDS011;10488;50.846;4.078;2022-11-20T03:04:03;73.03;;;34.13;;
20657;SDS011;10488;50.846;4.078;2022-11-20T03:06:30;75.60;;;32.10;;
20657;SDS011;10488;50.846;4.078;2022-11-20T03:08:57;71.32;;;32.17;;
20657;SDS011;10488;50.846;4.078;2022-11-20T03:11:24;74.87;;;31.67;;
20657;SDS011;10488;50.846;4.078;2022-11-20T03:13:50;74.70;;;33.60;;
20657;SDS011;10488;50.846;4.078;2022-11-20T03:16:18;80.18;;;32.40;;
20657;SDS011;10488;50.846;4.078;2022-11-20T03:18:45;69.67;;;31.30;;
20657;SDS011;10488;50.846;4.078;2022-11-20T03:21:12;72.90;;;32.23;;
20657;SDS011;10488;50.846;4.078;2022-11-20T03:23:39;78.53;;;33.87;;
20657;SDS011;10488;50.846;4.078;2022-11-20T03:28:36;80.25;;;34.17;;
20657;SDS011;10488;50.846;4.078;2022-11-20T03:31:07;76.72;;;32.55;;
20657;SDS011;10488;50.846;4.078;2022-11-20T03:33:35;79.00;;;33.45;;
20657;SDS011;10488;50.846;4.078;2022-11-20T03:36:03;70.25;;;32.15;;
20657;SDS011;10488;50.846;4.078;2022-11-20T03:38:31;77.40;;;32.80;;
20657;SDS011;10488;50.846;4.078;2022-11-20T03:41:00;72.15;;;31.85;;
20657;SDS011;10488;50.846;4.078;2022-11-20T03:43:31;75.88;;;33.00;;
20657;SDS011;10488;50.846;4.078;2022-11-20T03:45:59;81.18;;;32.38;;
20657;SDS011;10488;50.846;4.078;2022-11-20T03:48:26;78.80;;;32.17;;
20657;SDS011;10488;50.846;4.078;2022-11-20T03:51:05;81.75;;;32.92;;
20657;SDS011;10488;50.846;4.078;2022-11-20T03:53:38;70.63;;;31.58;;
20657;SDS011;10488;50.846;4.078;2022-11-20T03:56:04;65.53;;;30.43;;
20657;SDS011;10488;50.846;4.078;2022-11-20T03:58:32;71.33;;;32.43;;
20657;SDS011;10488;50.846;4.078;2022-11-20T04:01:04;79.10;;;34.03;;
20657;SDS011;10488;50.846;4.078;2022-11-20T04:03:39;78.20;;;30.77;;
20657;SDS011;10488;50.846;4.078;2022-11-20T04:06:16;78.40;;;33.07;;
20657;SDS011;10488;50.846;4.078;2022-11-20T04:08:44;69.07;;;30.35;;
20657;SDS011;10488;50.846;4.078;2022-11-20T04:13:41;73.93;;;31.88;;
20657;SDS011;10488;50.846;4.078;2022-11-20T04:16:12;78.35;;;31.95;;
20657;SDS011;10488;50.846;4.078;2022-11-20T04:18:39;78.15;;;32.17;;
20657;SDS011;10488;50.846;4.078;2022-11-20T04:21:07;81.05;;;33.22;;
20657;SDS011;10488;50.846;4.078;2022-11-20T04:23:32;84.33;;;32.97;;
20657;SDS011;10488;50.846;4.078;2022-11-20T04:26:05;84.05;;;32.78;;
20657;SDS011;10488;50.846;4.078;2022-11-20T04:28:32;73.67;;;32.50;;
20657;SDS011;10488;50.846;4.078;2022-11-20T04:31:05;75.70;;;32.78;;
20657;SDS011;10488;50.846;4.078;2022-11-20T04:33:33;77.70;;;32.88;;
20657;SDS011;10488;50.846;4.078;2022-11-20T04:36:02;80.53;;;31.98;;
20657;SDS011;10488;50.846;4.078;2022-11-20T04:38:30;83.43;;;31.42;;
20657;SDS011;10488;50.846;4.078;2022-11-20T04:41:00;86.88;;;33.00;;
20657;SDS011;10488;50.846;4.078;2022-11-20T04:43:28;88.80;;;34.67;;
20657;SDS011;10488;50.846;4.078;2022-11-20T04:45:54;95.32;;;35.35;;
20657;SDS011;10488;50.846;4.078;2022-11-20T04:48:21;93.95;;;34.47;;
20657;SDS011;10488;50.846;4.078;2022-11-20T04:50:48;84.70;;;32.60;;
20657;SDS011;10488;50.846;4.078;2022-11-20T04:53:16;95.17;;;33.87;;
20657;SDS011;10488;50.846;4.078;2022-11-20T04:55:43;98.87;;;35.47;;
20657;SDS011;10488;50.846;4.078;2022-11-20T04:58:09;99.25;;;34.10;;
20657;SDS011;10488;50.846;4.078;2022-11-20T05:00:35;93.25;;;35.75;;
20657;SDS011;10488;50.846;4.078;2022-11-20T05:03:01;95.78;;;36.03;;
20657;SDS011;10488;50.846;4.078;2022-11-20T05:05:28;98.33;;;34.63;;
20657;SDS011;10488;50.846;4.078;2022-11-20T05:07:57;98.60;;;36.17;;
20657;SDS011;10488;50.846;4.078;2022-11-20T05:10:26;86.63;;;34.13;;
20657;SDS011;10488;50.846;4.078;2022-11-20T05:12:52;97.53;;;36.20;;
20657;SDS011;10488;50.846;4.078;2022-11-20T05:15:18;91.30;;;33.80;;
20657;SDS011;10488;50.846;4.078;2022-11-20T05:17:50;91.80;;;34.37;;
20657;SDS011;10488;50.846;4.078;2022-11-20T05:20:17;91.80;;;36.13;;
20657;SDS011;10488;50.846;4.078;2022-11-20T05:22:43;110.43;;;35.53;;
20657;SDS011;10488;50.846;4.078;2022-11-20T05:25:10;94.20;;;35.33;;
20657;SDS011;10488;50.846;4.078;2022-11-20T05:27:37;104.77;;;36.30;;
20657;SDS011;10488;50.846;4.078;2022-11-20T05:30:03;96.43;;;35.13;;
20657;SDS011;10488;50.846;4.078;2022-11-20T05:32:29;84.10;;;32.60;;
20657;SDS011;10488;50.846;4.078;2022-11-20T05:34:56;92.78;;;35.15;;
20657;SDS011;10488;50.846;4.078;2022-11-20T05:37:23;95.10;;;35.07;;
20657;SDS011;10488;50.846;4.078;2022-11-20T05:39:48;98.80;;;35.35;;
20657;SDS011;10488;50.846;4.078;2022-11-20T05:42:14;92.60;;;35.55;;
20657;SDS011;10488;50.846;4.078;2022-11-20T05:44:55;101.43;;;34.97;;
20657;SDS011;10488;50.846;4.078;2022-11-20T05:47:22;98.13;;;34.65;;
20657;SDS011;10488;50.846;4.078;2022-11-20T05:49:49;89.97;;;33.83;;
20657;SDS011;10488;50.846;4.078;2022-11-20T05:52:15;101.07;;;35.43;;
20657;SDS011;10488;50.846;4.078;2022-11-20T05:54:41;96.38;;;35.65;;
20657;SDS011;10488;50.846;4.078;2022-11-20T05:57:07;101.03;;;35.95;;
20657;SDS011;10488;50.846;4.078;2022-11-20T05:59:34;96.15;;;35.78;;
20657;SDS011;10488;50.846;4.078;2022-11-20T06:02:00;96.13;;;36.45;;
20657;SDS011;10488;50.846;4.078;2022-11-20T06:04:26;92.93;;;35.30;;
20657;SDS011;10488;50.846;4.078;2022-11-20T06:06:53;96.75;;;34.78;;
20657;SDS011;10488;50.846;4.078;2022-11-20T06:09:19;94.15;;;34.90;;
20657;SDS011;10488;50.846;4.078;2022-11-20T06:11:44;91.97;;;33.75;;
20657;SDS011;10488;50.846;4.078;2022-11-20T06:14:11;85.75;;;33.72;;
20657;SDS011;10488;50.846;4.078;2022-11-20T06:16:37;103.13;;;34.05;;
20657;SDS011;10488;50.846;4.078;2022-11-20T06:19:04;91.25;;;32.22;;
20657;SDS011;10488;50.846;4.078;2022-11-20T06:21:31;89.30;;;33.42;;
20657;SDS011;10488;50.846;4.078;2022-11-20T06:23:57;79.20;;;32.38;;
20657;SDS011;10488;50.846;4.078;2022-11-20T06:26:24;79.80;;;33.33;;
20657;SDS011;10488;50.846;4.078;2022-11-20T06:28:52;91.03;;;34.83;;
20657;SDS011;10488;50.846;4.078;2022-11-20T06:31:20;77.60;;;32.55;;
20657;SDS011;10488;50.846;4.078;2022-11-20T06:33:49;89.25;;;33.03;;
20657;SDS011;10488;50.846;4.078;2022-11-20T06:36:16;90.70;;;34.23;;
20657;SDS011;10488;50.846;4.078;2022-11-20T06:38:44;83.75;;;32.40;;
20657;SDS011;10488;50.846;4.078;2022-11-20T06:41:12;88.82;;;32.60;;
20657;SDS011;10488;50.846;4.078;2022-11-20T06:43:41;83.03;;;32.03;;
20657;SDS011;10488;50.846;4.078;2022-11-20T06:46:10;88.22;;;32.08;;
20657;SDS011;10488;50.846;4.078;2022-11-20T06:48:38;84.78;;;31.65;;
20657;SDS011;10488;50.846;4.078;2022-11-20T06:51:05;84.63;;;31.92;;
20657;SDS011;10488;50.846;4.078;2022-11-20T06:53:33;76.77;;;29.90;;
20657;SDS011;10488;50.846;4.078;2022-11-20T06:55:59;79.68;;;31.80;;
20657;SDS011;10488;50.846;4.078;2022-11-20T06:58:28;69.93;;;30.98;;
20657;SDS011;10488;50.846;4.078;2022-11-20T07:01:01;75.25;;;30.63;;
20657;SDS011;10488;50.846;4.078;2022-11-20T07:03:29;78.63;;;31.25;;
20657;SDS011;10488;50.846;4.078;2022-11-20T07:05:55;70.90;;;28.33;;
20657;SDS011;10488;50.846;4.078;2022-11-20T07:08:22;77.93;;;29.73;;
20657;SDS011;10488;50.846;4.078;2022-11-20T07:10:48;72.05;;;30.33;;
20657;SDS011;10488;50.846;4.078;2022-11-20T07:13:14;74.15;;;31.98;;
20657;SDS011;10488;50.846;4.078;2022-11-20T07:15:39;69.32;;;27.75;;
20657;SDS011;10488;50.846;4.078;2022-11-20T07:18:06;66.90;;;26.63;;
20657;SDS011;10488;50.846;4.078;2022-11-20T07:20:32;67.30;;;27.65;;
20657;SDS011;10488;50.846;4.078;2022-11-20T07:23:00;71.78;;;30.60;;
20657;SDS011;10488;50.846;4.078;2022-11-20T07:25:27;70.60;;;29.77;;
20657;SDS011;10488;50.846;4.078;2022-11-20T07:27:57;67.63;;;27.17;;
20657;SDS011;10488;50.846;4.078;2022-11-20T07:30:24;65.68;;;26.23;;
20657;SDS011;10488;50.846;4.078;2022-11-20T07:32:51;67.00;;;26.25;;
20657;SDS011;10488;50.846;4.078;2022-11-20T07:35:19;66.95;;;26.45;;
20657;SDS011;10488;50.846;4.078;2022-11-20T07:37:45;70.78;;;27.48;;
20657;SDS011;10488;50.846;4.078;2022-11-20T07:40:12;71.50;;;28.55;;
20657;SDS011;10488;50.846;4.078;2022-11-20T07:42:38;69.47;;;27.60;;
20657;SDS011;10488;50.846;4.078;2022-11-20T07:45:04;66.32;;;27.10;;
20657;SDS011;10488;50.846;4.078;2022-11-20T07:47:39;71.10;;;27.17;;
20657;SDS011;10488;50.846;4.078;2022-11-20T07:50:05;70.30;;;28.60;;
20657;SDS011;10488;50.846;4.078;2022-11-20T07:52:31;75.85;;;28.77;;
20657;SDS011;10488;50.846;4.078;2022-11-20T07:54:57;81.20;;;29.05;;
20657;SDS011;10488;50.846;4.078;2022-11-20T07:57:23;79.63;;;28.58;;
20657;SDS011;10488;50.846;4.078;2022-11-20T07:59:49;79.53;;;29.08;;
20657;SDS011;10488;50.846;4.078;2022-11-20T08:02:15;73.65;;;30.10;;
20657;SDS011;10488;50.846;4.078;2022-11-20T08:04:41;74.60;;;28.13;;
20657;SDS011;10488;50.846;4.078;2022-11-20T08:07:06;77.47;;;29.45;;
20657;SDS011;10488;50.846;4.078;2022-11-20T08:09:32;94.32;;;30.05;;
20657;SDS011;10488;50.846;4.078;2022-11-20T08:11:58;70.83;;;28.27;;
20657;SDS011;10488;50.846;4.078;2022-11-20T08:14:42;76.90;;;28.75;;
20657;SDS011;10488;50.846;4.078;2022-11-20T08:17:07;87.55;;;29.42;;
20657;SDS011;10488;50.846;4.078;2022-11-20T08:19:34;71.20;;;26.40;;
20657;SDS011;10488;50.846;4.078;2022-11-20T08:21:59;72.40;;;29.48;;
20657;SDS011;10488;50.846;4.078;2022-11-20T08:24:25;67.30;;;28.25;;
20657;SDS011;10488;50.846;4.078;2022-11-20T08:26:51;62.78;;;26.60;;
20657;SDS011;10488;50.846;4.078;2022-11-20T08:29:17;73.90;;;27.40;;
20657;SDS011;10488;50.846;4.078;2022-11-20T08:31:43;72.63;;;26.48;;
20657;SDS011;10488;50.846;4.078;2022-11-20T08:34:10;81.10;;;28.45;;
20657;SDS011;10488;50.846;4.078;2022-11-20T08:36:35;66.22;;;26.02;;
20657;SDS011;10488;50.846;4.078;2022-11-20T08:39:01;76.25;;;28.05;;
20657;SDS011;10488;50.846;4.078;2022-11-20T08:41:29;66.40;;;26.63;;
20657;SDS011;10488;50.846;4.078;2022-11-20T08:44:02;79.95;;;27.48;;
20657;SDS011;10488;50.846;4.078;2022-11-20T08:46:33;68.00;;;26.70;;
20657;SDS011;10488;50.846;4.078;2022-11-20T08:49:02;66.57;;;26.38;;
20657;SDS011;10488;50.846;4.078;2022-11-20T08:51:31;60.38;;;24.17;;
20657;SDS011;10488;50.846;4.078;2022-11-20T08:53:56;53.10;;;22.85;;
20657;SDS011;10488;50.846;4.078;2022-11-20T08:56:22;56.38;;;23.40;;
20657;SDS011;10488;50.846;4.078;2022-11-20T08:58:49;56.22;;;23.85;;
20657;SDS011;10488;50.846;4.078;2022-11-20T09:01:16;49.30;;;21.65;;
20657;SDS011;10488;50.846;4.078;2022-11-20T09:03:42;58.20;;;22.88;;
20657;SDS011;10488;50.846;4.078;2022-11-20T09:06:08;55.55;;;21.70;;
20657;SDS011;10488;50.846;4.078;2022-11-20T09:08:34;46.30;;;21.27;;
20657;SDS011;10488;50.846;4.078;2022-11-20T09:11:01;48.92;;;21.15;;
20657;SDS011;10488;50.846;4.078;2022-11-20T09:13:28;42.00;;;19.75;;
20657;SDS011;10488;50.846;4.078;2022-11-20T09:16:01;40.70;;;19.42;;
20657;SDS011;10488;50.846;4.078;2022-11-20T09:18:29;46.22;;;19.48;;
20657;SDS011;10488;50.846;4.078;2022-11-20T09:21:01;39.00;;;17.55;;
20657;SDS011;10488;50.846;4.078;2022-11-20T09:23:31;39.08;;;17.30;;
20657;SDS011;10488;50.846;4.078;2022-11-20T09:26:01;35.58;;;17.08;;
20657;SDS011;10488;50.846;4.078;2022-11-20T09:28:28;36.63;;;16.05;;
20657;SDS011;10488;50.846;4.078;2022-11-20T09:30:54;37.60;;;17.30;;
20657;SDS011;10488;50.846;4.078;2022-11-20T09:33:20;42.00;;;16.80;;
20657;SDS011;10488;50.846;4.078;2022-11-20T09:35:46;39.13;;;18.13;;
20657;SDS011;10488;50.846;4.078;2022-11-20T09:38:13;32.17;;;15.60;;
20657;SDS011;10488;50.846;4.078;2022-11-20T09:40:51;34.50;;;16.50;;
20657;SDS011;10488;50.846;4.078;2022-11-20T09:49:26;27.50;;;14.00;;
20657;SDS011;10488;50.846;4.078;2022-11-20T09:51:44;29.75;;;13.95;;
20657;SDS011;10488;50.846;4.078;2022-11-20T09:54:26;32.10;;;13.45;;
20657;SDS011;10488;50.846;4.078;2022-11-20T09:56:58;25.63;;;12.73;;
20657;SDS011;10488;50.846;4.078;2022-11-20T10:04:58;21.77;;;11.32;;
20657;SDS011;10488;50.846;4.078;2022-11-20T10:13:00;17.67;;;8.95;;
20657;SDS011;10488;50.846;4.078;2022-11-20T10:16:21;17.10;;;8.50;;
20657;SDS011;10488;50.846;4.078;2022-11-20T10:29:16;19.77;;;7.53;;
20657;SDS011;10488;50.846;4.078;2022-11-20T10:31:49;16.98;;;5.63;;
20657;SDS011;10488;50.846;4.078;2022-11-20T10:34:21;16.00;;;6.70;;
20657;SDS011;10488;50.846;4.078;2022-11-20T10:37:06;10.45;;;5.22;;
20657;SDS011;10488;50.846;4.078;2022-11-20T10:42:17;12.38;;;4.00;;
20657;SDS011;10488;50.846;4.078;2022-11-20T10:44:58;9.82;;;4.03;;
20657;SDS011;10488;50.846;4.078;2022-11-20T10:47:38;14.30;;;5.05;;
20657;SDS011;10488;50.846;4.078;2022-11-20T10:50:04;10.07;;;4.43;;
20657;SDS011;10488;50.846;4.078;2022-11-20T10:58:10;13.35;;;4.72;;
20657;SDS011;10488;50.846;4.078;2022-11-20T11:00:40;8.02;;;3.92;;
20657;SDS011;10488;50.846;4.078;2022-11-20T11:05:51;12.23;;;5.90;;
20657;SDS011;10488;50.846;4.078;2022-11-20T11:08:24;6.57;;;4.07;;
20657;SDS011;10488;50.846;4.078;2022-11-20T11:10:57;10.52;;;4.15;;
20657;SDS011;10488;50.846;4.078;2022-11-20T11:13:27;8.93;;;3.22;;
20657;SDS011;10488;50.846;4.078;2022-11-20T11:15:54;8.23;;;3.85;;
20657;SDS011;10488;50.846;4.078;2022-11-20T11:20:51;6.32;;;2.83;;
20657;SDS011;10488;50.846;4.078;2022-11-20T11:23:38;5.68;;;3.17;;
20657;SDS011;10488;50.846;4.078;2022-11-20T11:26:06;8.07;;;3.10;;
20657;SDS011;10488;50.846;4.078;2022-11-20T11:28:52;8.85;;;3.05;;
20657;SDS011;10488;50.846;4.078;2022-11-20T11:31:32;5.50;;;2.78;;
20657;SDS011;10488;50.846;4.078;2022-11-20T11:36:32;9.52;;;2.83;;
20657;SDS011;10488;50.846;4.078;2022-11-20T11:38:59;9.50;;;3.00;;
20657;SDS011;10488;50.846;4.078;2022-11-20T11:41:28;13.88;;;2.85;;
20657;SDS011;10488;50.846;4.078;2022-11-20T11:43:58;5.43;;;2.03;;
20657;SDS011;10488;50.846;4.078;2022-11-20T11:46:52;5.32;;;2.47;;
20657;SDS011;10488;50.846;4.078;2022-11-20T11:49:20;6.65;;;3.25;;
20657;SDS011;10488;50.846;4.078;2022-11-20T11:52:00;4.88;;;2.70;;
20657;SDS011;10488;50.846;4.078;2022-11-20T11:54:30;4.80;;;2.70;;
20657;SDS011;10488;50.846;4.078;2022-11-20T11:57:00;6.22;;;2.63;;
20657;SDS011;10488;50.846;4.078;2022-11-20T12:02:31;6.82;;;3.25;;
20657;SDS011;10488;50.846;4.078;2022-11-20T12:05:08;13.88;;;3.83;;
20657;SDS011;10488;50.846;4.078;2022-11-20T12:10:04;7.32;;;2.97;;
20657;SDS011;10488;50.846;4.078;2022-11-20T12:12:38;7.82;;;2.97;;
20657;SDS011;10488;50.846;4.078;2022-11-20T12:15:10;7.28;;;3.40;;
20657;SDS011;10488;50.846;4.078;2022-11-20T12:17:48;5.85;;;2.75;;
20657;SDS011;10488;50.846;4.078;2022-11-20T12:20:20;9.18;;;3.58;;
20657;SDS011;10488;50.846;4.078;2022-11-20T12:23:08;7.22;;;3.33;;
20657;SDS011;10488;50.846;4.078;2022-11-20T12:25:43;11.10;;;3.55;;
20657;SDS011;10488;50.846;4.078;2022-11-20T12:36:40;6.63;;;2.92;;
20657;SDS011;10488;50.846;4.078;2022-11-20T12:39:17;11.68;;;2.88;;
20657;SDS011;10488;50.846;4.078;2022-11-20T12:53:10;5.50;;;3.10;;
20657;SDS011;10488;50.846;4.078;2022-11-20T12:55:49;6.65;;;3.05;;
20657;SDS011;10488;50.846;4.078;2022-11-20T13:01:19;6.60;;;2.78;;
20657;SDS011;10488;50.846;4.078;2022-11-20T13:06:43;4.97;;;2.88;;
20657;SDS011;10488;50.846;4.078;2022-11-20T13:09:11;3.42;;;2.50;;
20657;SDS011;10488;50.846;4.078;2022-11-20T13:14:35;5.05;;;2.67;;
20657;SDS011;10488;50.846;4.078;2022-11-20T13:19:49;3.90;;;2.65;;
20657;SDS011;10488;50.846;4.078;2022-11-20T13:22:25;5.43;;;2.45;;
20657;SDS011;10488;50.846;4.078;2022-11-20T13:25:21;5.78;;;2.83;;
20657;SDS011;10488;50.846;4.078;2022-11-20T13:27:55;4.80;;;2.67;;
20657;SDS011;10488;50.846;4.078;2022-11-20T13:30:22;3.97;;;2.42;;
20657;SDS011;10488;50.846;4.078;2022-11-20T13:32:56;2.72;;;2.42;;
20657;SDS011;10488;50.846;4.078;2022-11-20T13:35:32;5.97;;;2.20;;
20657;SDS011;10488;50.846;4.078;2022-11-20T13:38:07;5.00;;;2.40;;
20657;SDS011;10488;50.846;4.078;2022-11-20T13:40:38;3.67;;;2.55;;
20657;SDS011;10488;50.846;4.078;2022-11-20T13:45:54;3.08;;;2.78;;
20657;SDS011;10488;50.846;4.078;2022-11-20T13:48:23;3.55;;;2.50;;
20657;SDS011;10488;50.846;4.078;2022-11-20T14:01:23;5.05;;;2.33;;
20657;SDS011;10488;50.846;4.078;2022-11-20T14:03:50;5.50;;;3.40;;
20657;SDS011;10488;50.846;4.078;2022-11-20T14:08:47;4.80;;;2.30;;
20657;SDS011;10488;50.846;4.078;2022-11-20T14:11:17;3.45;;;2.17;;
20657;SDS011;10488;50.846;4.078;2022-11-20T14:13:55;4.75;;;1.60;;
20657;SDS011;10488;50.846;4.078;2022-11-20T14:16:29;4.85;;;2.40;;
20657;SDS011;10488;50.846;4.078;2022-11-20T14:18:57;2.63;;;2.13;;
20657;SDS011;10488;50.846;4.078;2022-11-20T14:21:43;3.85;;;2.53;;
20657;SDS011;10488;50.846;4.078;2022-11-20T14:24:12;2.53;;;2.33;;
20657;SDS011;10488;50.846;4.078;2022-11-20T14:26:42;3.88;;;2.03;;
20657;SDS011;10488;50.846;4.078;2022-11-20T14:29:16;4.25;;;3.10;;
20657;SDS011;10488;50.846;4.078;2022-11-20T14:31:44;3.00;;;2.70;;
20657;SDS011;10488;50.846;4.078;2022-11-20T14:34:18;5.22;;;2.20;;
20657;SDS011;10488;50.846;4.078;2022-11-20T14:36:47;3.17;;;2.78;;
20657;SDS011;10488;50.846;4.078;2022-11-20T14:39:24;3.72;;;2.70;;
20657;SDS011;10488;50.846;4.078;2022-11-20T14:41:55;4.70;;;3.60;;
20657;SDS011;10488;50.846;4.078;2022-11-20T14:44:22;3.10;;;2.85;;
20657;SDS011;10488;50.846;4.078;2022-11-20T14:46:52;5.20;;;3.72;;
20657;SDS011;10488;50.846;4.078;2022-11-20T14:49:20;4.53;;;3.30;;
20657;SDS011;10488;50.846;4.078;2022-11-20T14:51:46;8.15;;;5.20;;
20657;SDS011;10488;50.846;4.078;2022-11-20T14:54:18;11.40;;;6.05;;
20657;SDS011;10488;50.846;4.078;2022-11-20T14:56:56;4.60;;;3.65;;
20657;SDS011;10488;50.846;4.078;2022-11-20T14:59:25;6.15;;;5.03;;
20657;SDS011;10488;50.846;4.078;2022-11-20T15:02:07;6.88;;;4.65;;
20657;SDS011;10488;50.846;4.078;2022-11-20T15:04:48;9.30;;;4.90;;
20657;SDS011;10488;50.846;4.078;2022-11-20T15:07:24;6.32;;;3.90;;
20657;SDS011;10488;50.846;4.078;2022-11-20T15:12:33;11.85;;;4.20;;
20657;SDS011;10488;50.846;4.078;2022-11-20T15:15:05;9.27;;;3.72;;
20657;SDS011;10488;50.846;4.078;2022-11-20T15:17:37;7.57;;;4.55;;
20657;SDS011;10488;50.846;4.078;2022-11-20T15:20:05;6.65;;;4.07;;
20657;SDS011;10488;50.846;4.078;2022-11-20T15:22:39;6.45;;;4.22;;
20657;SDS011;10488;50.846;4.078;2022-11-20T15:25:12;8.43;;;4.10;;
20657;SDS011;10488;50.846;4.078;2022-11-20T15:27:39;11.00;;;4.05;;
20657;SDS011;10488;50.846;4.078;2022-11-20T15:30:11;8.13;;;3.65;;
20657;SDS011;10488;50.846;4.078;2022-11-20T15:32:41;11.15;;;4.13;;
20657;SDS011;10488;50.846;4.078;2022-11-20T15:35:07;8.00;;;3.63;;
20657;SDS011;10488;50.846;4.078;2022-11-20T15:37:34;8.75;;;4.80;;
20657;SDS011;10488;50.846;4.078;2022-11-20T15:40:00;7.57;;;3.22;;
20657;SDS011;10488;50.846;4.078;2022-11-20T15:42:26;12.68;;;3.78;;
20657;SDS011;10488;50.846;4.078;2022-11-20T15:44:51;14.93;;;3.83;;
20657;SDS011;10488;50.846;4.078;2022-11-20T15:47:17;13.30;;;4.20;;
20657;SDS011;10488;50.846;4.078;2022-11-20T15:49:46;14.07;;;3.63;;
20657;SDS011;10488;50.846;4.078;2022-11-20T15:52:11;9.68;;;3.30;;
20657;SDS011;10488;50.846;4.078;2022-11-20T15:54:38;18.48;;;4.68;;
20657;SDS011;10488;50.846;4.078;2022-11-20T15:57:03;14.23;;;3.35;;
20657;SDS011;10488;50.846;4.078;2022-11-20T15:59:29;14.75;;;3.38;;
20657;SDS011;10488;50.846;4.078;2022-11-20T16:01:55;17.65;;;3.63;;
20657;SDS011;10488;50.846;4.078;2022-11-20T16:04:20;21.08;;;3.97;;
20657;SDS011;10488;50.846;4.078;2022-11-20T16:06:46;17.13;;;4.03;;
20657;SDS011;10488;50.846;4.078;2022-11-20T16:09:11;15.50;;;4.25;;
20657;SDS011;10488;50.846;4.078;2022-11-20T16:11:37;21.08;;;4.85;;
20657;SDS011;10488;50.846;4.078;2022-11-20T16:14:03;15.90;;;5.22;;
20657;SDS011;10488;50.846;4.078;2022-11-20T16:16:48;17.13;;;4.85;;
20657;SDS011;10488;50.846;4.078;2022-11-20T16:19:15;15.02;;;3.78;;
20657;SDS011;10488;50.846;4.078;2022-11-20T16:21:42;17.55;;;3.70;;
20657;SDS011;10488;50.846;4.078;2022-11-20T16:24:11;18.27;;;3.97;;
20657;SDS011;10488;50.846;4.078;2022-11-20T16:26:38;19.20;;;3.95;;
20657;SDS011;10488;50.846;4.078;2022-11-20T16:29:05;15.65;;;4.60;;
20657;SDS011;10488;50.846;4.078;2022-11-20T16:31:31;26.85;;;4.78;;